createdAt,value
2018-02-17T00:00:34.473Z,8.30
2018-02-17T00:03:01.560Z,9.90
2018-02-17T00:05:28.482Z,10.47
2018-02-17T00:07:55.468Z,8.10
2018-02-17T00:10:22.797Z,8.80
2018-02-17T00:12:49.781Z,6.20
2018-02-17T00:15:16.808Z,6.77
2018-02-17T00:17:44.570Z,10.50
2018-02-17T00:20:12.446Z,7.63
2018-02-17T00:22:39.433Z,7.20
2018-02-17T00:25:06.552Z,9.20
2018-02-17T00:27:33.604Z,7.43
2018-02-17T00:30:01.382Z,7.60
2018-02-17T00:32:29.259Z,7.10
2018-02-17T00:34:56.274Z,7.70
2018-02-17T00:37:22.526Z,5.17
2018-02-17T00:39:48.786Z,6.90
2018-02-17T00:42:15.772Z,7.63
2018-02-17T00:44:42.570Z,6.70
2018-02-17T00:47:08.868Z,11.33
2018-02-17T00:49:35.142Z,6.07
2018-02-17T00:52:01.406Z,6.20
2018-02-17T00:54:27.652Z,6.10
2018-02-17T00:56:53.978Z,9.10
2018-02-17T00:59:20.636Z,9.30
2018-02-17T01:01:46.894Z,16.77
2018-02-17T01:04:13.125Z,7.10
2018-02-17T01:06:39.727Z,8.83
2018-02-17T01:09:07.039Z,6.60
2018-02-17T01:11:33.717Z,8.70
2018-02-17T01:13:59.962Z,6.53
2018-02-17T01:16:27.425Z,5.70
2018-02-17T01:18:54.998Z,6.17
2018-02-17T01:21:22.409Z,8.60
2018-02-17T01:23:48.641Z,6.03
2018-02-17T01:26:15.428Z,6.83
2018-02-17T01:28:42.426Z,7.40
2018-02-17T01:31:09.334Z,5.73
2018-02-17T01:33:36.901Z,6.47
2018-02-17T01:36:03.879Z,8.33
2018-02-17T01:38:30.128Z,9.00
2018-02-17T01:40:56.733Z,9.10
2018-02-17T01:43:24.510Z,10.70
2018-02-17T01:45:51.524Z,9.50
2018-02-17T01:48:17.769Z,7.73
2018-02-17T01:50:44.345Z,7.87
2018-02-17T01:53:10.710Z,11.23
2018-02-17T01:55:37.724Z,9.17
2018-02-17T01:58:05.101Z,8.67
2018-02-17T02:00:31.354Z,8.00
2018-02-17T02:02:57.629Z,8.27
2018-02-17T02:05:24.397Z,6.77
2018-02-17T02:07:51.378Z,9.37
2018-02-17T02:10:18.066Z,5.70
2018-02-17T02:12:44.946Z,8.23
2018-02-17T02:15:12.509Z,9.40
2018-02-17T02:17:39.492Z,7.90
2018-02-17T02:20:06.307Z,9.10
2018-02-17T02:22:33.296Z,6.23
2018-02-17T02:25:00.265Z,9.70
2018-02-17T02:27:26.519Z,9.33
2018-02-17T02:29:53.303Z,9.67
2018-02-17T02:32:20.745Z,10.80
2018-02-17T02:34:46.997Z,8.10
2018-02-17T02:37:14.050Z,7.87
2018-02-17T02:39:41.060Z,7.20
2018-02-17T02:42:07.312Z,7.47
2018-02-17T02:44:34.910Z,9.80
2018-02-17T02:47:01.889Z,8.20
2018-02-17T02:49:28.182Z,10.00
2018-02-17T02:51:55.175Z,7.93
2018-02-17T02:54:21.879Z,9.63
2018-02-17T02:56:48.871Z,8.27
2018-02-17T02:59:15.577Z,8.10
2018-02-17T03:01:42.949Z,7.70
2018-02-17T03:04:09.937Z,5.40
2018-02-17T03:06:36.186Z,6.07
2018-02-17T03:09:03.257Z,9.20
2018-02-17T03:11:30.990Z,6.03
2018-02-17T03:13:57.996Z,6.83
2018-02-17T03:16:25.634Z,7.57
2018-02-17T03:18:51.875Z,6.80
2018-02-17T03:21:18.957Z,10.30
2018-02-17T03:23:46.309Z,12.80
2018-02-17T03:26:13.734Z,12.10
2018-02-17T03:28:40.026Z,9.67
2018-02-17T03:31:06.858Z,11.77
2018-02-17T03:33:34.333Z,10.10
2018-02-17T03:36:00.586Z,6.70
2018-02-17T03:38:26.838Z,7.03
2018-02-17T03:40:53.108Z,6.70
2018-02-17T03:43:21.601Z,6.20
2018-02-17T03:45:47.842Z,7.00
2018-02-17T03:48:14.829Z,6.40
2018-02-17T03:50:41.844Z,6.27
2018-02-17T03:53:08.812Z,6.30
2018-02-17T03:55:35.050Z,7.20
2018-02-17T03:58:01.642Z,7.00
2018-02-17T04:00:27.889Z,6.40
2018-02-17T04:02:54.153Z,7.33
2018-02-17T04:05:20.520Z,7.20
2018-02-17T04:07:46.804Z,6.10
2018-02-17T04:10:14.588Z,7.97
2018-02-17T04:12:42.142Z,7.37
2018-02-17T04:15:09.909Z,11.10
2018-02-17T04:17:36.893Z,7.07
2018-02-17T04:20:03.610Z,11.30
2018-02-17T04:22:30.589Z,8.00
2018-02-17T04:24:57.290Z,10.83
2018-02-17T04:27:23.629Z,11.50
2018-02-17T04:29:51.300Z,8.43
2018-02-17T04:32:18.060Z,9.50
2018-02-17T04:34:45.041Z,10.47
2018-02-17T04:37:11.318Z,7.80
2018-02-17T04:39:37.615Z,8.20
2018-02-17T04:42:07.733Z,7.23
2018-02-17T04:44:40.690Z,8.80
2018-02-17T04:47:10.597Z,7.60
2018-02-17T04:49:58.242Z,8.80
2018-02-17T04:52:36.469Z,11.23
2018-02-17T04:55:19.960Z,10.70
2018-02-17T04:58:00.425Z,8.23
2018-02-17T05:00:33.098Z,7.90
2018-02-17T05:03:16.884Z,10.13
2018-02-17T05:05:46.327Z,7.50
2018-02-17T05:08:21.343Z,8.10
2018-02-17T05:10:49.441Z,8.10
2018-02-17T05:13:16.805Z,7.47
2018-02-17T05:15:50.509Z,6.57
2018-02-17T05:18:18.499Z,7.20
2018-02-17T05:20:46.730Z,9.50
2018-02-17T05:23:23.330Z,10.20
2018-02-17T05:25:52.690Z,10.50
2018-02-17T05:28:34.924Z,8.20
2018-02-17T05:31:04.853Z,8.23
2018-02-17T05:33:38.109Z,10.40
2018-02-17T05:36:24.313Z,11.20
2018-02-17T05:39:07.246Z,10.50
2018-02-17T05:41:40.209Z,11.60
2018-02-17T05:44:07.318Z,10.10
2018-02-17T05:46:36.928Z,10.80
2018-02-17T05:49:03.202Z,12.53
2018-02-17T05:51:29.494Z,11.97
2018-02-17T05:53:56.076Z,13.20
2018-02-17T05:56:22.333Z,14.40
2018-02-17T05:58:48.952Z,13.03
2018-02-17T06:01:15.200Z,11.10
2018-02-17T06:03:42.186Z,13.63
2018-02-17T06:06:09.622Z,16.10
2018-02-17T06:08:37.925Z,14.40
2018-02-17T06:11:05.529Z,14.17
2018-02-17T06:13:33.448Z,15.20
2018-02-17T06:16:00.907Z,13.87
2018-02-17T06:18:27.134Z,14.40
2018-02-17T06:20:53.411Z,15.03
2018-02-17T06:23:20.018Z,12.20
2018-02-17T06:25:46.820Z,11.47
2018-02-17T06:28:13.068Z,13.13
2018-02-17T06:30:39.857Z,14.57
2018-02-17T06:33:07.523Z,14.30
2018-02-17T06:35:34.568Z,12.67
2018-02-17T06:38:01.539Z,12.50
2018-02-17T06:40:27.794Z,11.13
2018-02-17T06:42:54.038Z,12.30
2018-02-17T06:45:20.758Z,10.40
2018-02-17T06:47:47.005Z,9.50
2018-02-17T06:50:13.247Z,8.30
2018-02-17T06:52:41.168Z,8.17
2018-02-17T06:55:08.157Z,12.07
2018-02-17T06:57:34.991Z,9.63
2018-02-17T07:00:01.241Z,10.83
2018-02-17T07:02:28.158Z,9.50
2018-02-17T07:04:55.425Z,11.40
2018-02-17T07:07:22.978Z,6.13
2018-02-17T07:09:50.606Z,11.30
2018-02-17T07:12:16.847Z,12.90
2018-02-17T07:14:43.105Z,14.20
2018-02-17T07:17:09.720Z,12.00
2018-02-17T07:19:35.989Z,13.27
2018-02-17T07:22:02.992Z,14.57
2018-02-17T07:24:31.013Z,15.10
2018-02-17T07:26:58.342Z,14.00
2018-02-17T07:29:24.636Z,10.53
2018-02-17T07:31:51.313Z,24.93
2018-02-17T07:34:17.860Z,14.40
2018-02-17T07:36:44.101Z,16.23
2018-02-17T07:39:10.343Z,11.30
2018-02-17T07:41:38.509Z,11.93
2018-02-17T07:44:05.293Z,13.03
2018-02-17T07:46:32.268Z,24.23
2018-02-17T07:48:59.088Z,18.77
2018-02-17T07:51:26.075Z,31.33
2018-02-17T07:53:52.681Z,13.50
2018-02-17T07:56:19.670Z,15.07
2018-02-17T07:58:46.219Z,27.70
2018-02-17T08:01:12.808Z,15.00
2018-02-17T08:03:39.152Z,14.67
2018-02-17T08:06:06.487Z,13.50
2018-02-17T08:08:34.094Z,16.97
2018-02-17T08:11:01.239Z,18.77
2018-02-17T08:13:28.238Z,14.50
2018-02-17T08:15:54.918Z,15.37
2018-02-17T08:18:21.161Z,15.70
2018-02-17T08:20:48.176Z,19.43
2018-02-17T08:23:14.446Z,14.73
2018-02-17T08:25:41.889Z,15.30
2018-02-17T08:28:08.150Z,16.33
2018-02-17T08:30:35.821Z,15.00
2018-02-17T08:33:02.559Z,16.30
2018-02-17T08:35:29.588Z,22.00
2018-02-17T08:37:56.610Z,14.37
2018-02-17T08:40:23.309Z,25.27
2018-02-17T08:42:50.886Z,17.60
2018-02-17T08:45:18.441Z,23.33
2018-02-17T08:47:47.023Z,16.00
2018-02-17T08:50:14.017Z,12.40
2018-02-17T08:52:40.848Z,13.63
2018-02-17T08:55:07.105Z,14.87
2018-02-17T08:57:33.350Z,13.57
2018-02-17T09:00:00.134Z,12.60
2018-02-17T09:02:27.568Z,12.60
2018-02-17T09:04:53.854Z,12.83
2018-02-17T09:07:20.118Z,13.37
2018-02-17T09:09:47.482Z,14.43
2018-02-17T09:12:13.749Z,13.23
2018-02-17T09:14:40.000Z,15.60
2018-02-17T09:17:07.412Z,14.17
2018-02-17T09:19:33.657Z,11.70
2018-02-17T09:21:59.917Z,11.23
2018-02-17T09:24:27.809Z,16.00
2018-02-17T09:26:55.171Z,15.83
2018-02-17T09:29:22.830Z,14.73
2018-02-17T09:31:50.265Z,12.53
2018-02-17T09:34:16.921Z,13.90
2018-02-17T09:36:43.534Z,19.90
2018-02-17T09:39:09.787Z,17.60
2018-02-17T09:41:36.037Z,15.10
2018-02-17T09:44:02.784Z,16.83
2018-02-17T09:46:29.030Z,16.70
2018-02-17T09:48:57.309Z,18.37
2018-02-17T09:51:24.657Z,19.20
2018-02-17T09:53:50.974Z,21.20
2018-02-17T09:56:17.510Z,22.17
2018-02-17T09:58:44.146Z,17.67
2018-02-17T10:01:10.802Z,17.90
2018-02-17T10:03:37.074Z,17.10
2018-02-17T10:06:04.074Z,18.70
2018-02-17T10:08:31.074Z,19.90
2018-02-17T10:10:58.511Z,20.57
2018-02-17T10:13:24.766Z,19.40
2018-02-17T10:15:52.428Z,18.17
2018-02-17T10:18:19.456Z,19.23
2018-02-17T10:20:45.748Z,19.10
2018-02-17T10:23:12.364Z,14.57
2018-02-17T10:25:40.351Z,15.70
2018-02-17T10:28:06.712Z,14.63
2018-02-17T10:30:33.524Z,15.83
2018-02-17T10:33:00.927Z,17.47
2018-02-17T10:35:27.679Z,17.00
2018-02-17T10:37:53.962Z,16.00
2018-02-17T10:40:20.948Z,15.93
2018-02-17T10:42:47.722Z,16.00
2018-02-17T10:45:14.508Z,16.43
2018-02-17T10:47:41.980Z,15.10
2018-02-17T10:50:08.977Z,16.50
2018-02-17T10:52:35.249Z,15.40
2018-02-17T10:55:02.715Z,15.10
2018-02-17T10:57:30.021Z,14.77
2018-02-17T10:59:56.313Z,16.30
2018-02-17T11:02:23.301Z,17.43
2018-02-17T11:04:49.564Z,18.00
2018-02-17T11:07:16.257Z,16.17
2018-02-17T11:09:42.986Z,17.77
2018-02-17T11:12:09.969Z,18.17
2018-02-17T11:14:36.528Z,16.77
2018-02-17T11:17:03.207Z,17.10
2018-02-17T11:19:29.871Z,17.30
2018-02-17T11:21:56.953Z,19.53
2018-02-17T11:24:23.972Z,14.10
2018-02-17T11:26:51.573Z,14.50
2018-02-17T11:29:17.818Z,14.30
2018-02-17T11:31:44.503Z,16.20
2018-02-17T11:34:11.221Z,15.50
2018-02-17T11:36:37.517Z,17.10
2018-02-17T11:39:04.462Z,16.23
2018-02-17T11:41:31.449Z,14.07
2018-02-17T11:43:58.353Z,15.13
2018-02-17T11:46:25.340Z,16.80
2018-02-17T11:48:51.611Z,16.00
2018-02-17T11:51:18.697Z,15.00
2018-02-17T11:53:45.705Z,16.13
2018-02-17T11:56:12.569Z,15.13
2018-02-17T11:58:40.305Z,15.07
2018-02-17T12:01:06.561Z,17.10
2018-02-17T12:03:33.340Z,13.47
2018-02-17T12:06:00.405Z,13.80
2018-02-17T12:08:27.422Z,13.30
2018-02-17T12:10:56.133Z,14.63
2018-02-17T12:13:23.505Z,13.27
2018-02-17T12:15:51.074Z,13.57
2018-02-17T12:18:18.638Z,14.57
2018-02-17T12:20:45.573Z,13.23
2018-02-17T12:23:13.101Z,13.90
2018-02-17T12:25:39.786Z,14.20
2018-02-17T12:28:06.860Z,15.97
2018-02-17T12:30:33.484Z,13.60
2018-02-17T12:33:00.912Z,14.90
2018-02-17T12:35:27.149Z,13.00
2018-02-17T12:37:53.781Z,12.83
2018-02-17T12:40:20.035Z,12.50
2018-02-17T12:42:46.314Z,13.13
2018-02-17T12:45:12.976Z,13.70
2018-02-17T12:47:39.650Z,12.30
2018-02-17T12:50:06.410Z,12.57
2018-02-17T12:52:33.162Z,12.63
2018-02-17T12:55:00.174Z,12.03
2018-02-17T12:57:26.413Z,12.83
2018-02-17T12:59:53.317Z,13.47
2018-02-17T13:02:20.309Z,13.60
2018-02-17T13:04:46.552Z,12.33
2018-02-17T13:07:13.241Z,13.50
2018-02-17T13:09:40.914Z,13.80
2018-02-17T13:12:07.971Z,14.23
2018-02-17T13:14:35.005Z,13.80
2018-02-17T13:17:02.573Z,14.00
2018-02-17T13:19:30.557Z,14.70
2018-02-17T13:21:57.552Z,14.33
2018-02-17T13:24:25.162Z,15.20
2018-02-17T13:26:52.733Z,14.00
2018-02-17T13:29:19.715Z,13.57
2018-02-17T13:31:46.518Z,13.70
2018-02-17T13:34:13.154Z,15.63
2018-02-17T13:36:39.411Z,13.33
2018-02-17T13:39:06.869Z,13.63
2018-02-17T13:41:33.862Z,14.13
2018-02-17T13:44:00.665Z,13.87
2018-02-17T13:46:27.655Z,13.80
2018-02-17T13:48:54.359Z,14.00
2018-02-17T13:51:21.783Z,13.67
2018-02-17T13:53:48.051Z,14.83
2018-02-17T13:56:15.033Z,14.53
2018-02-17T13:58:41.299Z,15.20
2018-02-17T14:01:07.546Z,15.23
2018-02-17T14:03:33.876Z,15.90
2018-02-17T14:06:00.156Z,16.23
2018-02-17T14:08:27.182Z,18.57
2018-02-17T14:10:53.953Z,18.50
2018-02-17T14:13:21.427Z,15.80
2018-02-17T14:15:47.756Z,16.17
2018-02-17T14:18:14.488Z,16.87
2018-02-17T14:20:41.869Z,16.43
2018-02-17T14:23:08.590Z,17.70
2018-02-17T14:25:36.161Z,18.47
2018-02-17T14:28:03.622Z,15.77
2018-02-17T14:30:30.598Z,17.97
2018-02-17T14:32:57.269Z,17.53
2018-02-17T14:35:23.515Z,17.33
2018-02-17T14:37:49.797Z,16.23
2018-02-17T14:40:16.323Z,18.13
2018-02-17T14:42:43.174Z,17.73
2018-02-17T14:45:10.526Z,16.30
2018-02-17T14:47:38.086Z,19.43
2018-02-17T14:50:04.347Z,17.40
2018-02-17T14:52:30.603Z,20.10
2018-02-17T14:54:56.910Z,14.97
2018-02-17T14:57:24.374Z,17.77
2018-02-17T14:59:51.423Z,17.90
2018-02-17T15:02:18.419Z,16.17
2018-02-17T15:04:44.708Z,17.17
2018-02-17T15:07:11.694Z,18.03
2018-02-17T15:09:38.609Z,14.87
2018-02-17T15:12:05.603Z,19.60
2018-02-17T15:14:32.545Z,16.83
2018-02-17T15:16:59.255Z,18.37
2018-02-17T15:19:27.078Z,14.43
2018-02-17T15:21:53.353Z,16.43
2018-02-17T15:24:20.171Z,14.90
2018-02-17T15:26:46.874Z,15.83
2018-02-17T15:29:13.130Z,18.33
2018-02-17T15:31:39.379Z,15.30
2018-02-17T15:34:05.974Z,17.20
2018-02-17T15:36:32.967Z,13.20
2018-02-17T15:38:59.270Z,12.53
2018-02-17T15:41:25.827Z,17.40
2018-02-17T15:43:52.638Z,12.37
2018-02-17T15:46:20.004Z,11.43
2018-02-17T15:48:47.003Z,11.03
2018-02-17T15:51:13.630Z,10.63
2018-02-17T15:53:39.878Z,12.50
2018-02-17T15:56:06.547Z,12.70
2018-02-17T15:58:34.257Z,11.87
2018-02-17T16:01:00.509Z,14.33
2018-02-17T16:03:27.123Z,14.70
2018-02-17T16:05:54.211Z,12.40
2018-02-17T16:08:20.554Z,11.90
2018-02-17T16:10:47.332Z,15.40
2018-02-17T16:13:15.385Z,14.77
2018-02-17T16:15:41.641Z,18.30
2018-02-17T16:18:09.047Z,20.10
2018-02-17T16:20:35.761Z,15.60
2018-02-17T16:23:02.402Z,17.53
2018-02-17T16:25:29.390Z,18.40
2018-02-17T16:27:55.695Z,17.87
2018-02-17T16:30:21.937Z,17.33
2018-02-17T16:32:49.450Z,15.50
2018-02-17T16:35:15.691Z,19.87
2018-02-17T16:37:41.937Z,17.23
2018-02-17T16:40:10.154Z,17.43
2018-02-17T16:42:38.218Z,16.53
2018-02-17T16:45:05.572Z,16.20
2018-02-17T16:47:32.173Z,17.00
2018-02-17T16:49:58.467Z,15.40
2018-02-17T16:52:25.457Z,19.23
2018-02-17T16:54:51.714Z,16.20
2018-02-17T16:57:18.494Z,15.40
2018-02-17T16:59:45.474Z,11.43
2018-02-17T17:02:11.766Z,17.10
2018-02-17T17:04:39.679Z,17.27
2018-02-17T17:07:05.957Z,18.20
2018-02-17T17:09:32.741Z,16.73
2018-02-17T17:12:00.074Z,18.60
2018-02-17T17:14:26.705Z,17.30
2018-02-17T17:16:53.345Z,17.10
2018-02-17T17:19:20.007Z,16.70
2018-02-17T17:21:47.007Z,15.70
2018-02-17T17:24:13.241Z,16.00
2018-02-17T17:26:40.144Z,14.67
2018-02-17T17:29:06.413Z,15.10
2018-02-17T17:31:32.665Z,15.90
2018-02-17T17:34:00.186Z,17.60
2018-02-17T17:36:27.183Z,27.80
2018-02-17T17:38:54.094Z,27.93
2018-02-17T17:41:21.693Z,38.27
2018-02-17T17:43:48.601Z,16.93
2018-02-17T17:46:16.007Z,16.90
2018-02-17T17:48:42.276Z,23.00
2018-02-17T17:51:08.530Z,17.77
2018-02-17T17:53:34.804Z,19.70
2018-02-17T17:56:01.162Z,16.93
2018-02-17T17:58:27.495Z,18.23
2018-02-17T18:00:54.184Z,18.77
2018-02-17T18:03:21.757Z,17.97
2018-02-17T18:05:48.778Z,16.93
2018-02-17T18:08:15.583Z,17.60
2018-02-17T18:10:42.501Z,16.20
2018-02-17T18:13:09.967Z,19.33
2018-02-17T18:15:36.949Z,17.97
2018-02-17T18:18:03.627Z,17.77
2018-02-17T18:20:32.820Z,17.23
2018-02-17T18:22:59.692Z,20.20
2018-02-17T18:25:27.999Z,17.97
2018-02-17T18:27:55.003Z,21.53
2018-02-17T18:30:21.276Z,20.03
2018-02-17T18:32:48.996Z,18.00
2018-02-17T18:35:15.874Z,17.50
2018-02-17T18:37:42.730Z,36.33
2018-02-17T18:40:09.082Z,21.10
2018-02-17T18:42:36.862Z,18.23
2018-02-17T18:45:04.323Z,28.40
2018-02-17T18:47:31.309Z,42.43
2018-02-17T18:49:57.565Z,29.30
2018-02-17T18:52:24.146Z,16.43
2018-02-17T18:54:51.802Z,24.77
2018-02-17T18:57:18.785Z,16.23
2018-02-17T18:59:45.498Z,26.80
2018-02-17T19:02:12.565Z,25.60
2018-02-17T19:04:39.591Z,29.03
2018-02-17T19:07:06.946Z,24.53
2018-02-17T19:09:33.657Z,92.53
2018-02-17T19:11:59.977Z,35.63
2018-02-17T19:14:26.953Z,19.07
2018-02-17T19:16:53.657Z,21.70
2018-02-17T19:19:21.102Z,18.10
2018-02-17T19:21:48.083Z,19.30
2018-02-17T19:24:14.391Z,15.97
2018-02-17T19:26:41.769Z,27.43
2018-02-17T19:29:08.032Z,28.00
2018-02-17T19:31:34.274Z,19.83
2018-02-17T19:34:01.162Z,15.33
2018-02-17T19:36:27.944Z,28.40
2018-02-17T19:38:54.579Z,14.33
2018-02-17T19:41:21.216Z,17.60
2018-02-17T19:43:48.718Z,17.57
2018-02-17T19:46:15.557Z,21.13
2018-02-17T19:48:41.810Z,16.70
2018-02-17T19:51:08.441Z,15.90
2018-02-17T19:53:35.261Z,16.23
2018-02-17T19:56:01.557Z,19.63
2018-02-17T19:58:28.556Z,19.60
2018-02-17T20:00:55.075Z,16.93
2018-02-17T20:03:21.923Z,17.13
2018-02-17T20:05:48.946Z,19.27
2018-02-17T20:08:15.297Z,18.13
2018-02-17T20:10:42.631Z,17.70
2018-02-17T20:13:09.520Z,17.37
2018-02-17T20:15:36.542Z,18.03
2018-02-17T20:18:03.249Z,16.87
2018-02-17T20:20:30.069Z,18.10
2018-02-17T20:22:56.322Z,17.33
2018-02-17T20:25:23.343Z,20.60
2018-02-17T20:27:50.365Z,18.70
2018-02-17T20:30:17.507Z,18.80
2018-02-17T20:32:44.202Z,18.33
2018-02-17T20:35:11.658Z,20.07
2018-02-17T20:37:39.231Z,17.37
2018-02-17T20:40:06.769Z,18.70
2018-02-17T20:42:33.043Z,17.73
2018-02-17T20:45:00.188Z,16.50
2018-02-17T20:47:26.875Z,18.50
2018-02-17T20:49:53.145Z,19.20
2018-02-17T20:52:20.244Z,20.10
2018-02-17T20:54:46.770Z,20.27
2018-02-17T20:57:13.026Z,20.13
2018-02-17T20:59:39.362Z,19.80
2018-02-17T21:02:06.369Z,21.73
2018-02-17T21:04:33.361Z,19.60
2018-02-17T21:06:59.629Z,21.30
2018-02-17T21:09:26.410Z,21.10
2018-02-17T21:11:53.491Z,19.80
2018-02-17T21:14:20.421Z,19.93
2018-02-17T21:16:47.286Z,21.40
2018-02-17T21:19:14.095Z,21.67
2018-02-17T21:21:41.649Z,19.67
2018-02-17T21:24:08.419Z,22.17
2018-02-17T21:26:35.975Z,20.77
2018-02-17T21:29:03.348Z,19.73
2018-02-17T21:31:30.126Z,20.37
2018-02-17T21:33:57.050Z,20.70
2018-02-17T21:36:23.317Z,22.53
2018-02-17T21:38:50.117Z,20.23
2018-02-17T21:41:17.177Z,18.10
2018-02-17T21:43:44.165Z,20.43
2018-02-17T21:46:10.869Z,19.00
2018-02-17T21:48:37.892Z,19.70
2018-02-17T21:51:04.165Z,20.53
2018-02-17T21:53:30.446Z,20.60
2018-02-17T21:55:56.710Z,20.57
2018-02-17T21:58:23.372Z,18.50
2018-02-17T22:00:50.873Z,20.10
2018-02-17T22:03:17.489Z,19.13
2018-02-17T22:05:44.073Z,20.20
2018-02-17T22:08:10.798Z,21.80
2018-02-17T22:10:37.507Z,19.33
2018-02-17T22:13:04.963Z,21.27
2018-02-17T22:15:31.948Z,20.10
2018-02-17T22:17:58.650Z,17.57
2018-02-17T22:20:25.491Z,21.77
2018-02-17T22:22:51.737Z,19.97
2018-02-17T22:25:18.370Z,22.47
2018-02-17T22:27:46.498Z,22.07
2018-02-17T22:30:13.309Z,22.63
2018-02-17T22:32:40.701Z,18.60
2018-02-17T22:35:06.969Z,19.43
2018-02-17T22:37:33.226Z,22.87
2018-02-17T22:40:00.940Z,19.50
2018-02-17T22:42:27.205Z,18.00
2018-02-17T22:44:54.161Z,19.60
2018-02-17T22:47:20.458Z,18.50
2018-02-17T22:49:46.701Z,19.57
2018-02-17T22:52:13.018Z,17.87
2018-02-17T22:54:39.273Z,19.40
2018-02-17T22:57:05.963Z,18.03
2018-02-17T22:59:33.001Z,18.97
2018-02-17T23:02:00.081Z,17.77
2018-02-17T23:04:27.953Z,18.73
2018-02-17T23:06:55.266Z,16.50
2018-02-17T23:09:21.993Z,16.83
2018-02-17T23:11:48.227Z,17.50
2018-02-17T23:14:14.969Z,17.50
2018-02-17T23:16:41.675Z,16.97
2018-02-17T23:19:08.694Z,15.87
2018-02-17T23:21:35.414Z,16.97
2018-02-17T23:24:02.225Z,16.40
2018-02-17T23:26:29.660Z,15.30
2018-02-17T23:28:56.434Z,15.30
2018-02-17T23:31:23.417Z,15.90
2018-02-17T23:33:50.197Z,16.97
2018-02-17T23:36:16.451Z,17.40
2018-02-17T23:38:44.867Z,16.10
2018-02-17T23:41:11.131Z,16.60
2018-02-17T23:43:37.393Z,16.50
2018-02-17T23:46:04.052Z,15.20
2018-02-17T23:48:31.513Z,16.50
2018-02-17T23:50:57.799Z,13.83
2018-02-17T23:53:24.057Z,16.97
2018-02-17T23:55:50.641Z,15.73
2018-02-17T23:58:17.645Z,16.33
